createdAt,value
2023-04-22T00:01:01.580Z,0.01
2023-04-22T00:08:16.364Z,0.02
2023-04-22T00:12:58.485Z,0.01
2023-04-22T00:15:29.429Z,0.02
2023-04-22T00:25:17.438Z,0.01
2023-04-22T00:27:40.605Z,0.02
2023-04-22T00:47:40.361Z,0.01
2023-04-22T00:50:01.513Z,0.02
2023-04-22T01:09:47.924Z,0.01
2023-04-22T01:12:07.548Z,0.02
2023-04-22T01:19:46.653Z,0.01
2023-04-22T01:24:24.077Z,0.02
2023-04-22T01:26:21.908Z,0.01
2023-04-22T01:46:05.622Z,0.02
2023-04-22T01:48:01.727Z,0.01
2023-04-22T02:17:52.388Z,0.02
2023-04-22T02:19:52.919Z,0.01
2023-04-22T02:27:36.232Z,0.02
2023-04-22T02:29:42.491Z,0.01
2023-04-22T02:32:36.841Z,0.02
2023-04-22T02:47:14.933Z,0.01
2023-04-22T02:59:34.681Z,0.02
2023-04-22T03:03:42.649Z,0.01
2023-04-22T03:13:18.590Z,0.02
2023-04-22T03:26:15.554Z,0.03
2023-04-22T03:28:58.517Z,0.04
2023-04-22T03:31:27.723Z,0.05
2023-04-22T03:33:42.987Z,0.08
2023-04-22T03:35:44.205Z,0.1
2023-04-22T03:38:33.533Z,0.15
2023-04-22T03:41:08.843Z,0.2
2023-04-22T03:43:30.078Z,0.28
2023-04-22T03:45:37.598Z,0.37
2023-04-22T03:48:32.876Z,0.57
2023-04-22T03:51:14.245Z,0.92
2023-04-22T03:53:41.655Z,1.29
2023-04-22T03:55:55.233Z,1.73
2023-04-22T03:57:54.845Z,2.64
2023-04-22T04:00:42.352Z,3.9
2023-04-22T04:03:16.233Z,6.55
2023-04-22T04:05:35.725Z,9.13
2023-04-22T04:07:41.372Z,13.43
2023-04-22T04:10:35.195Z,20.64
2023-04-22T04:13:14.505Z,28.68
2023-04-22T04:15:40.226Z,38.9
2023-04-22T04:17:51.866Z,52.48
2023-04-22T04:19:49.585Z,62.32
2023-04-22T04:22:35.424Z,76.94
2023-04-22T04:25:07.174Z,92.52
2023-04-22T04:27:25.075Z,103.04
2023-04-22T04:29:28.991Z,114.12
2023-04-22T04:32:20.784Z,126.2
2023-04-22T04:34:58.729Z,130.12
2023-04-22T04:37:22.641Z,140.92
2023-04-22T04:39:32.644Z,156.72
2023-04-22T04:41:28.798Z,170.5
2023-04-22T04:44:12.881Z,188.8
2023-04-22T04:46:43.017Z,200.5
2023-04-22T04:48:58.950Z,210.6
2023-04-22T04:51:01.271Z,224
2023-04-22T04:53:51.427Z,260.1
2023-04-22T04:56:27.505Z,308.8
2023-04-22T04:58:50.035Z,345.4
2023-04-22T05:00:58.216Z,415.5
2023-04-22T05:03:54.133Z,522.8
2023-04-22T05:06:36.525Z,605.1
2023-04-22T05:09:04.868Z,635.3
2023-04-22T05:11:19.273Z,648.4
2023-04-22T05:13:19.799Z,632.8
2023-04-22T05:16:08.237Z,609.2
2023-04-22T05:18:42.717Z,599.2
2023-04-22T05:21:03.153Z,601.1
2023-04-22T05:23:09.754Z,630.2
2023-04-22T05:26:04.499Z,696.3
2023-04-22T05:28:44.857Z,732.4
2023-04-22T05:31:11.612Z,762.8
2023-04-22T05:33:24.225Z,778.5
2023-04-22T05:35:22.851Z,767
2023-04-22T05:38:09.582Z,754.5
2023-04-22T05:40:42.380Z,769.2
2023-04-22T05:43:01.084Z,798
2023-04-22T05:45:06.042Z,852.8
2023-04-22T05:47:58.860Z,949.7
2023-04-22T05:50:37.630Z,1027.8
2023-04-22T05:53:02.401Z,1078.4
2023-04-22T05:55:13.003Z,1143.3
2023-04-22T05:57:09.793Z,1181.7
2023-04-22T05:59:54.698Z,1171.8
2023-04-22T06:02:25.923Z,1201.9
2023-04-22T06:04:43.198Z,1236.1
2023-04-22T06:06:45.839Z,1312
2023-04-22T06:09:37.011Z,1509.1
2023-04-22T06:12:14.106Z,1647
2023-04-22T06:14:37.232Z,1672
2023-04-22T06:16:46.607Z,1704
2023-04-22T06:19:43.756Z,1635.2
2023-04-22T06:22:26.984Z,1560.9
2023-04-22T06:24:56.137Z,1510.4
2023-04-22T06:27:11.427Z,1479.6
2023-04-22T06:29:12.733Z,1438
2023-04-22T06:32:02.038Z,1447.6
2023-04-22T06:34:37.491Z,1516.8
2023-04-22T06:36:58.942Z,1587.8
2023-04-22T06:39:06.279Z,1580.1
2023-04-22T06:42:01.854Z,1691
2023-04-22T06:44:43.375Z,1863
2023-04-22T06:47:10.398Z,2046
2023-04-22T06:49:23.721Z,2261
2023-04-22T06:51:23.288Z,2423
2023-04-22T06:54:10.704Z,2798
2023-04-22T06:56:44.101Z,2919
2023-04-22T06:59:03.654Z,2862
2023-04-22T07:01:09.177Z,2773
2023-04-22T07:04:02.514Z,2725
2023-04-22T07:06:42.181Z,2698
2023-04-22T07:09:07.706Z,2858
2023-04-22T07:11:19.311Z,2918
2023-04-22T07:13:17.038Z,2982
2023-04-22T07:16:02.817Z,3101
2023-04-22T07:18:15.481Z,3070
2023-04-22T07:20:14.190Z,3057
2023-04-22T07:23:00.740Z,3009
2023-04-22T07:25:33.489Z,3221
2023-04-22T07:27:52.259Z,3280
2023-04-22T07:29:56.993Z,3134
2023-04-22T07:32:49.840Z,3264
2023-04-22T07:35:28.679Z,3389
2023-04-22T07:37:53.029Z,3280
2023-04-22T07:40:04.039Z,3114
2023-04-22T07:42:00.998Z,2970
2023-04-22T07:44:45.830Z,2630
2023-04-22T07:47:16.497Z,2689
2023-04-22T07:49:33.446Z,2741
2023-04-22T07:51:36.395Z,2749
2023-04-22T07:54:27.236Z,2562
2023-04-22T07:57:04.371Z,2462
2023-04-22T07:59:27.282Z,2340
2023-04-22T08:01:36.473Z,2458
2023-04-22T08:04:33.348Z,2401
2023-04-22T08:07:30.690Z,2360
2023-04-22T08:09:45.488Z,2244
2023-04-22T08:12:00.538Z,2127
2023-04-22T08:14:01.792Z,2163
2023-04-22T08:16:51.013Z,2059
2023-04-22T08:19:26.229Z,2179
2023-04-22T08:21:47.762Z,2036
2023-04-22T08:23:55.192Z,2627
2023-04-22T08:26:50.522Z,2689
2023-04-22T08:29:31.830Z,2465
2023-04-22T08:31:59.065Z,2673
2023-04-22T08:34:12.556Z,2897
2023-04-22T08:36:12.297Z,3201
2023-04-22T08:38:59.896Z,3422
2023-04-22T08:41:33.459Z,3864
2023-04-22T08:43:52.920Z,3907
2023-04-22T08:45:58.602Z,3733
2023-04-22T08:48:52.181Z,3520
2023-04-22T08:51:31.849Z,3316
2023-04-22T08:53:57.692Z,3624
2023-04-22T08:56:09.555Z,3733
2023-04-22T08:58:07.320Z,3845
2023-04-22T09:00:53.154Z,4072
2023-04-22T09:03:25.046Z,4422
2023-04-22T09:05:42.868Z,4416
2023-04-22T09:07:46.907Z,4382
2023-04-22T09:10:38.927Z,4120
2023-04-22T09:13:16.980Z,4055
2023-04-22T09:15:40.914Z,4003
2023-04-22T09:17:51.115Z,3925
2023-04-22T09:19:46.861Z,4236
2023-04-22T09:22:30.765Z,4573
2023-04-22T09:25:00.909Z,4687
2023-04-22T09:27:17.014Z,4622
2023-04-22T09:29:19.161Z,4683
2023-04-22T09:32:09.553Z,4582
2023-04-22T09:34:45.630Z,4602
2023-04-22T09:37:07.908Z,4608
2023-04-22T09:39:16.382Z,4545
2023-04-22T09:42:12.748Z,4414
2023-04-22T09:44:55.103Z,4206
2023-04-22T09:47:23.373Z,4328
2023-04-22T09:49:38.110Z,4412
2023-04-22T09:51:38.374Z,4581
2023-04-22T09:54:26.697Z,4741
2023-04-22T09:57:01.265Z,4874
2023-04-22T09:59:21.856Z,4908
2023-04-22T10:01:28.435Z,4860
2023-04-22T10:04:23.063Z,5195
2023-04-22T10:07:03.666Z,5524
2023-04-22T10:09:30.219Z,5701
2023-04-22T10:11:42.500Z,5511
2023-04-22T10:13:41.150Z,5176
2023-04-22T10:16:27.740Z,4902
2023-04-22T10:19:00.319Z,4382
2023-04-22T10:21:19.170Z,4348
2023-04-22T10:23:23.924Z,4131
2023-04-22T10:26:16.568Z,4158
2023-04-22T10:28:55.433Z,3833
2023-04-22T10:31:20.277Z,3550
2023-04-22T10:33:31.069Z,3831
2023-04-22T10:35:28.093Z,3531
2023-04-22T10:38:13.003Z,3374
2023-04-22T10:40:43.968Z,3814
2023-04-22T10:43:00.753Z,3797
2023-04-22T10:45:03.775Z,4275
2023-04-22T10:47:54.722Z,3842
2023-04-22T10:50:31.634Z,4296
2023-04-22T10:52:54.880Z,3836
2023-04-22T10:55:04.154Z,4108
2023-04-22T10:58:00.809Z,4688
2023-04-22T11:00:52.910Z,4592
2023-04-22T11:03:12.764Z,4989
2023-04-22T11:05:27.738Z,5185
2023-04-22T11:07:29.939Z,5109
2023-04-22T11:10:17.952Z,4732
2023-04-22T11:12:53.067Z,4288
2023-04-22T11:15:14.131Z,3795
2023-04-22T11:17:21.437Z,2919
2023-04-22T11:20:16.480Z,3127
2023-04-22T11:22:57.523Z,3203
2023-04-22T11:25:24.764Z,3502
2023-04-22T11:27:38.017Z,3957
2023-04-22T11:29:37.573Z,4250
2023-04-22T11:32:24.588Z,3751
2023-04-22T11:34:57.993Z,3019
2023-04-22T11:37:17.110Z,4111
2023-04-22T11:39:22.630Z,4110
2023-04-22T11:42:15.873Z,3828
2023-04-22T11:44:55.141Z,3669
2023-04-22T11:47:20.475Z,3567
2023-04-22T11:49:31.893Z,3581
2023-04-22T11:51:29.385Z,3543
2023-04-22T11:54:14.234Z,3548
2023-04-22T11:56:45.773Z,3525
2023-04-22T11:59:03.219Z,3371
2023-04-22T12:01:06.724Z,3424
2023-04-22T12:03:58.354Z,3403
2023-04-22T12:06:35.745Z,3333
2023-04-22T12:08:59.241Z,3384
2023-04-22T12:11:08.909Z,3248
2023-04-22T12:13:04.619Z,3569
2023-04-22T12:15:48.124Z,3292
2023-04-22T12:18:17.607Z,3475
2023-04-22T12:20:33.336Z,3393
2023-04-22T12:22:35.110Z,3293
2023-04-22T12:25:25.178Z,3513
2023-04-22T12:28:00.251Z,3686
2023-04-22T12:30:21.986Z,3642
2023-04-22T12:32:29.766Z,3704
2023-04-22T12:35:25.550Z,3787
2023-04-22T12:38:07.302Z,3756
2023-04-22T12:40:35.069Z,3809
2023-04-22T12:42:48.873Z,3825
2023-04-22T12:44:48.559Z,3875
2023-04-22T12:47:36.475Z,4231
2023-04-22T12:50:10.195Z,3157
2023-04-22T12:52:30.248Z,3116
2023-04-22T12:54:36.354Z,2827
2023-04-22T12:57:30.169Z,4254
2023-04-22T13:00:10.339Z,4504
2023-04-22T13:02:36.509Z,3618
2023-04-22T13:04:48.575Z,4376
2023-04-22T13:06:46.974Z,4782
2023-04-22T13:09:33.098Z,4163
2023-04-22T13:12:05.245Z,4186
2023-04-22T13:14:23.463Z,3595
2023-04-22T13:16:27.965Z,3539
2023-04-22T13:19:20.108Z,3814
2023-04-22T13:21:58.370Z,3943
2023-04-22T13:24:22.816Z,3811
2023-04-22T13:26:33.350Z,3719
2023-04-22T13:28:29.803Z,3084
2023-04-22T13:31:14.370Z,2192
2023-04-22T13:33:44.822Z,2199
2023-04-22T13:36:01.015Z,1829
2023-04-22T13:38:03.805Z,1688
2023-04-22T13:40:54.286Z,1443.2
2023-04-22T13:43:30.831Z,1201.6
2023-04-22T13:45:53.377Z,963.2
2023-04-22T13:48:02.109Z,860.8
2023-04-22T13:50:58.664Z,968.6
2023-04-22T13:53:41.183Z,1024.3
2023-04-22T13:56:10.002Z,860.1
2023-04-22T13:58:24.822Z,891.5
2023-04-22T14:00:25.685Z,920.3
2023-04-22T14:03:15.040Z,855
2023-04-22T14:05:49.417Z,784
2023-04-22T14:08:10.325Z,691.5
2023-04-22T14:10:17.464Z,615.2
2023-04-22T14:13:12.522Z,541.6
2023-04-22T14:15:53.449Z,554.4
2023-04-22T14:18:20.430Z,628.4
2023-04-22T14:20:33.730Z,555.3
2023-04-22T14:22:33.044Z,662
2023-04-22T14:25:20.164Z,722.2
2023-04-22T14:27:53.190Z,867.2
2023-04-22T14:30:12.565Z,768.6
2023-04-22T14:32:18.675Z,619.5
2023-04-22T14:35:11.402Z,661.1
2023-04-22T14:37:50.871Z,800
2023-04-22T14:40:16.374Z,980.4
2023-04-22T14:42:27.735Z,1097.9
2023-04-22T14:44:25.365Z,1149.1
2023-04-22T14:47:10.845Z,1616
2023-04-22T14:49:42.561Z,1238.7
2023-04-22T14:52:00.039Z,970.8
2023-04-22T14:54:03.766Z,897.2
2023-04-22T14:56:55.145Z,843.5
2023-04-22T14:59:32.851Z,855.3
2023-04-22T15:01:56.546Z,1240
2023-04-22T15:04:06.245Z,1334.4
2023-04-22T15:06:02.172Z,1509.1
2023-04-22T15:08:45.988Z,1715
2023-04-22T15:11:15.793Z,1323.5
2023-04-22T15:13:31.556Z,1872
2023-04-22T15:15:33.590Z,2816
2023-04-22T15:18:23.026Z,3214
2023-04-22T15:20:58.848Z,3246
2023-04-22T15:23:20.893Z,3221
2023-04-22T15:25:28.875Z,2845
2023-04-22T15:28:24.698Z,2551
2023-04-22T15:31:06.784Z,2609
2023-04-22T15:33:34.893Z,2944
2023-04-22T15:35:48.984Z,2906
2023-04-22T15:37:49.332Z,2854
2023-04-22T15:40:37.531Z,2659
2023-04-22T15:43:11.691Z,2166
2023-04-22T15:45:31.864Z,1990
2023-04-22T15:47:38.283Z,2033
2023-04-22T15:50:32.468Z,1728
2023-04-22T15:53:12.647Z,1532.1
2023-04-22T15:55:39.103Z,1728
2023-04-22T15:57:51.511Z,1379.2
2023-04-22T15:59:56.385Z,1534.7
2023-04-22T16:02:36.519Z,1133.4
2023-04-22T16:05:08.866Z,1299.8
2023-04-22T16:07:27.316Z,1459.8
2023-04-22T16:09:31.572Z,1642
2023-04-22T16:12:24.001Z,1445.7
2023-04-22T16:15:02.513Z,1143.6
2023-04-22T16:17:26.968Z,1087.6
2023-04-22T16:19:37.788Z,848.3
2023-04-22T16:21:34.413Z,781.4
2023-04-22T16:24:18.964Z,957.7
2023-04-22T16:26:49.762Z,1178.2
2023-04-22T16:29:06.526Z,1167
2023-04-22T16:31:09.343Z,1114.2
2023-04-22T16:34:00.151Z,1202.2
2023-04-22T16:36:37.012Z,958
2023-04-22T16:38:59.901Z,735
2023-04-22T16:41:09.045Z,714.2
2023-04-22T16:44:06.024Z,759.3
2023-04-22T16:46:48.999Z,889.9
2023-04-22T16:49:17.920Z,1021.1
2023-04-22T16:51:33.047Z,1204.8
2023-04-22T16:53:34.396Z,1278.4
2023-04-22T16:56:23.151Z,1347.2
2023-04-22T16:58:58.349Z,1381.1
2023-04-22T17:01:19.158Z,1345.2
2023-04-22T17:03:26.325Z,1296.6
2023-04-22T17:06:21.551Z,1214.7
2023-04-22T17:09:02.827Z,1165.4
2023-04-22T17:11:30.077Z,1073.2
2023-04-22T17:13:43.300Z,900.1
2023-04-22T17:15:42.743Z,764.4
2023-04-22T17:18:30.044Z,688.6
2023-04-22T17:21:03.310Z,591.2
2023-04-22T17:23:22.774Z,441.7
2023-04-22T17:25:28.215Z,423.6
2023-04-22T17:28:21.566Z,555.2
2023-04-22T17:31:01.194Z,556.8
2023-04-22T17:33:26.732Z,529.7
2023-04-22T17:35:38.250Z,549.4
2023-04-22T17:37:36.031Z,559.8
2023-04-22T17:40:21.717Z,560.3
2023-04-22T17:42:42.799Z,557.6
2023-04-22T17:44:33.289Z,522.2
2023-04-22T17:47:19.906Z,462.4
2023-04-22T17:49:52.772Z,430.2
2023-04-22T17:52:11.189Z,394.2
2023-04-22T17:54:15.978Z,350
2023-04-22T17:57:08.937Z,310.4
2023-04-22T17:59:47.779Z,265.9
2023-04-22T18:02:12.909Z,229.6
2023-04-22T18:04:23.793Z,207.2
2023-04-22T18:06:20.748Z,178.6
2023-04-22T18:09:05.732Z,146
2023-04-22T18:11:36.658Z,133.6
2023-04-22T18:13:53.806Z,123.8
2023-04-22T18:15:57.032Z,113.68
2023-04-22T18:18:48.073Z,95.24
2023-04-22T18:21:25.313Z,72.42
2023-04-22T18:23:48.534Z,52.56
2023-04-22T18:25:57.691Z,31.81
2023-04-22T18:28:55.059Z,24.88
2023-04-22T18:31:38.425Z,27.87
2023-04-22T18:34:07.751Z,23.03
2023-04-22T18:36:23.061Z,21.62
2023-04-22T18:38:24.643Z,18.09
2023-04-22T18:41:14.124Z,12.05
2023-04-22T18:43:49.169Z,8.59
2023-04-22T18:46:10.815Z,5.93
2023-04-22T18:48:18.322Z,4.37
2023-04-22T18:51:13.762Z,2.83
2023-04-22T18:53:55.572Z,1.79
2023-04-22T18:56:23.102Z,1.23
2023-04-22T18:58:36.726Z,0.93
2023-04-22T19:00:36.560Z,0.65
2023-04-22T19:03:24.393Z,0.44
2023-04-22T19:05:57.922Z,0.28
2023-04-22T19:08:17.600Z,0.21
2023-04-22T19:10:23.469Z,0.14
2023-04-22T19:13:28.443Z,0.1
2023-04-22T19:15:57.149Z,0.07
2023-04-22T19:18:23.051Z,0.05
2023-04-22T19:20:34.915Z,0.04
2023-04-22T19:27:50.865Z,0.03
2023-04-22T19:40:08.562Z,0.02
2023-04-22T19:46:57.509Z,0.03
2023-04-22T19:49:27.755Z,0.02
2023-04-22T20:23:50.286Z,0.03
2023-04-22T20:31:32.171Z,0.02
2023-04-22T21:02:44.779Z,0.03
2023-04-22T21:39:49.096Z,0.04
2023-04-22T21:41:56.710Z,0.03
2023-04-22T21:44:52.171Z,0.04
2023-04-22T21:47:33.684Z,0.05
2023-04-22T21:50:01.383Z,0.03
2023-04-22T21:54:14.631Z,0.02
2023-04-22T22:37:51.454Z,0.03
2023-04-22T22:40:35.578Z,0.02
2023-04-22T22:57:20.795Z,0.03
2023-04-22T23:17:25.688Z,0.02
2023-04-22T23:46:59.776Z,0.03
2023-04-22T23:49:24.711Z,0.02
2023-04-22T23:56:16.899Z,0.03
